Time;durP1;ratioP1;P1;durP2;ratioP2;P2;SDS_P1;SDS_P2;PMS_P1;PMS_P2;Temp;Humidity;BMP_temperature;BMP_pressure;BME280_temperature;BME280_humidity;BME280_pressure;Samples;Min_cycle;Max_cycle;Signal;HPM_P1;HPM_P2
2023/10/07 00:00:47;;;;;;;28.35;18.60;;;22.40;97.00;;;;;;7398130;19;20308;-71
2023/10/07 00:03:15;;;;;;;25.98;19.05;;;22.40;97.00;;;;;;7396556;19;19915;-73
2023/10/07 00:05:46;;;;;;;31.33;20.25;;;22.40;96.90;;;;;;7397516;19;19922;-72
2023/10/07 00:08:20;;;;;;;26.85;19.38;;;22.40;97.00;;;;;;7398819;19;19935;-72
2023/10/07 00:10:49;;;;;;;26.85;20.13;;;22.30;97.00;;;;;;7396458;19;19978;-72
2023/10/07 00:13:20;;;;;;;29.17;20.13;;;22.30;97.00;;;;;;7396296;19;19918;-71
2023/10/07 00:15:51;;;;;;;25.88;19.38;;;22.30;97.00;;;;;;7397528;19;19929;-71
2023/10/07 00:18:18;;;;;;;26.23;19.00;;;22.20;97.00;;;;;;7372392;19;19918;-72
2023/10/07 00:20:49;;;;;;;26.02;18.55;;;22.20;97.10;;;;;;7396721;19;19928;-73
2023/10/07 00:23:18;;;;;;;27.02;17.90;;;22.20;97.10;;;;;;7393026;19;19918;-72
2023/10/07 00:25:49;;;;;;;27.65;17.83;;;22.20;97.00;;;;;;7403028;19;19931;-72
2023/10/07 00:28:24;;;;;;;23.95;18.30;;;22.20;97.20;;;;;;7398363;19;20352;-72
2023/10/07 00:30:55;;;;;;;26.65;19.05;;;22.20;97.20;;;;;;7403745;19;19990;-72
2023/10/07 00:33:27;;;;;;;22.58;17.08;;;22.20;97.20;;;;;;7402653;19;20235;-71
2023/10/07 00:35:53;;;;;;;25.70;18.10;;;22.10;97.30;;;;;;7402866;19;19974;-72
2023/10/07 00:38:23;;;;;;;23.92;17.13;;;22.20;97.30;;;;;;7401688;19;19923;-72
2023/10/07 00:40:54;;;;;;;23.48;17.67;;;22.20;97.30;;;;;;7402290;19;20295;-72
2023/10/07 00:43:26;;;;;;;23.17;17.70;;;22.10;97.30;;;;;;7401873;19;19950;-71
2023/10/07 00:46:41;;;;;;;23.55;17.42;;;22.20;97.40;;;;;;7401610;19;19914;-71
2023/10/07 00:48:52;;;;;;;22.90;17.17;;;22.10;97.50;;;;;;7401458;19;19915;-73
2023/10/07 00:51:31;;;;;;;22.85;16.92;;;22.10;97.60;;;;;;7402816;19;19939;-72
2023/10/07 00:54:18;;;;;;;27.48;18.23;;;22.10;97.60;;;;;;7400952;19;19943;-71
2023/10/07 00:57:10;;;;;;;25.35;19.13;;;22.10;97.70;;;;;;7402752;19;19934;-72
2023/10/07 00:59:40;;;;;;;25.75;19.50;;;22.00;97.70;;;;;;7401175;19;20509;-72
2023/10/07 01:02:14;;;;;;;25.70;19.63;;;22.00;97.80;;;;;;7402055;19;19991;-72
2023/10/07 01:04:40;;;;;;;25.77;18.85;;;22.00;97.90;;;;;;7402297;19;19974;-72
2023/10/07 01:07:19;;;;;;;25.77;20.13;;;22.00;97.90;;;;;;7401440;19;19939;-71
2023/10/07 01:10:13;;;;;;;27.45;19.50;;;22.00;97.90;;;;;;7403173;19;20314;-72
2023/10/07 01:12:40;;;;;;;27.15;19.25;;;21.90;98.00;;;;;;7400672;19;19923;-72
2023/10/07 01:17:54;;;;;;;23.27;17.83;;;21.80;98.10;;;;;;7402382;19;19911;-72
2023/10/07 01:21:10;;;;;;;27.73;18.70;;;21.90;98.20;;;;;;7398730;19;19915;-72
2023/10/07 01:23:07;;;;;;;24.77;19.63;;;21.90;98.20;;;;;;7400380;19;19922;-72
2023/10/07 01:25:43;;;;;;;26.95;18.45;;;21.80;98.20;;;;;;7402340;19;19931;-71
2023/10/07 01:28:11;;;;;;;23.55;18.45;;;21.80;98.30;;;;;;7399436;19;19906;-72
2023/10/07 01:30:37;;;;;;;24.67;19.10;;;21.70;98.40;;;;;;7402337;19;19914;-71
2023/10/07 01:33:16;;;;;;;27.60;19.75;;;21.80;98.40;;;;;;7400930;19;20025;-72
2023/10/07 01:36:30;;;;;;;30.35;20.77;;;21.80;98.50;;;;;;7403180;19;19914;-72
2023/10/07 01:38:32;;;;;;;30.30;20.27;;;21.70;98.50;;;;;;7402112;19;19923;-72
2023/10/07 01:41:05;;;;;;;26.75;19.58;;;21.70;98.50;;;;;;7401664;19;19998;-71
2023/10/07 01:43:31;;;;;;;25.90;19.48;;;21.70;98.60;;;;;;7399494;19;19929;-71
2023/10/07 01:45:57;;;;;;;29.27;21.27;;;21.60;98.70;;;;;;7400812;19;19914;-72
2023/10/07 01:48:24;;;;;;;27.02;19.83;;;21.70;98.70;;;;;;7400621;19;20271;-72
2023/10/07 01:50:51;;;;;;;24.88;19.67;;;21.70;98.80;;;;;;7401871;19;20350;-71
2023/10/07 01:53:18;;;;;;;27.88;19.92;;;21.60;98.80;;;;;;7398533;19;19923;-72
2023/10/07 01:55:47;;;;;;;25.48;18.63;;;21.60;98.80;;;;;;7400631;19;19928;-72
2023/10/07 01:58:14;;;;;;;26.70;20.05;;;21.70;98.90;;;;;;7397828;19;20356;-73
2023/10/07 02:00:45;;;;;;;31.15;21.25;;;21.60;98.90;;;;;;7400681;19;20288;-71
2023/10/07 02:03:16;;;;;;;27.60;20.58;;;21.70;98.80;;;;;;7398818;19;19919;-72
2023/10/07 02:05:49;;;;;;;27.02;20.52;;;21.70;98.80;;;;;;7402806;19;20343;-74
2023/10/07 02:08:22;;;;;;;25.60;19.58;;;21.60;98.80;;;;;;7401684;19;19911;-73
2023/10/07 02:10:58;;;;;;;29.23;19.48;;;21.60;99.00;;;;;;7401633;19;19922;-71
2023/10/07 02:13:27;;;;;;;26.25;18.95;;;21.60;99.00;;;;;;7399708;19;20061;-71
2023/10/07 02:15:54;;;;;;;30.42;22.25;;;21.60;99.10;;;;;;7377582;19;20636;-72
2023/10/07 02:18:20;;;;;;;29.42;21.10;;;21.60;99.20;;;;;;7394567;19;19988;-71
2023/10/07 02:21:06;;;;;;;31.13;22.25;;;21.50;99.30;;;;;;7400191;19;19923;-72
2023/10/07 02:23:45;;;;;;;29.15;20.90;;;21.50;99.40;;;;;;7402759;19;19975;-72
2023/10/07 02:26:32;;;;;;;;;;;21.50;99.40;;;;;;7403524;19;19922;-72
2023/10/07 02:29:06;;;;;;;30.25;20.85;;;21.50;99.50;;;;;;7399721;19;20331;-72
2023/10/07 02:31:51;;;;;;;28.55;20.55;;;21.60;99.50;;;;;;7399812;19;19938;-72
2023/10/07 02:34:29;;;;;;;29.95;21.92;;;21.60;99.50;;;;;;7398851;19;19918;-72
2023/10/07 02:37:09;;;;;;;30.65;20.98;;;21.50;99.40;;;;;;7400395;19;19915;-71
2023/10/07 02:39:45;;;;;;;28.27;20.65;;;21.50;99.40;;;;;;7401598;19;19926;-72
2023/10/07 02:42:15;;;;;;;27.90;21.27;;;21.50;99.50;;;;;;7400554;19;19995;-72
2023/10/07 02:44:45;;;;;;;28.92;19.10;;;21.50;99.50;;;;;;7399220;19;19992;-72
2023/10/07 02:47:11;;;;;;;27.42;20.88;;;21.50;99.50;;;;;;7395942;19;19922;-73
2023/10/07 02:49:39;;;;;;;29.65;21.13;;;21.40;99.50;;;;;;7400337;19;19922;-73
2023/10/07 02:52:05;;;;;;;31.25;20.35;;;21.40;99.60;;;;;;7398484;19;19918;-71
2023/10/07 02:54:34;;;;;;;29.60;21.45;;;21.40;99.70;;;;;;7399923;19;20347;-72
2023/10/07 02:59:33;;;;;;;30.02;20.67;;;21.40;99.80;;;;;;7400056;19;19937;-71
2023/10/07 03:04:58;;;;;;;30.98;21.33;;;21.40;99.80;;;;;;7399203;19;19946;-72
2023/10/07 03:07:25;;;;;;;30.92;20.98;;;21.40;99.90;;;;;;7397867;19;19986;-71
2023/10/07 03:10:42;;;;;;;32.50;21.13;;;21.30;99.90;;;;;;7400248;19;19997;-72
2023/10/07 03:12:47;;;;;;;29.90;22.35;;;21.30;99.90;;;;;;7397195;19;19929;-72
2023/10/07 03:18:03;;;;;;;26.67;20.48;;;21.40;99.90;;;;;;7397671;19;20348;-72
2023/10/07 03:20:31;;;;;;;29.05;20.85;;;21.30;99.90;;;;;;7397693;19;20623;-72
2023/10/07 03:23:11;;;;;;;30.23;21.95;;;21.30;99.90;;;;;;7398370;19;19942;-71
2023/10/07 03:28:16;;;;;;;27.83;21.15;;;21.40;99.90;;;;;;7398745;19;19919;-72
2023/10/07 03:30:53;;;;;;;29.95;22.48;;;21.30;99.90;;;;;;7399932;19;19974;-72
2023/10/07 03:36:08;;;;;;;29.33;21.65;;;21.30;99.90;;;;;;7398160;19;19926;-71
2023/10/07 03:38:35;;;;;;;29.40;22.02;;;21.30;99.90;;;;;;7398719;19;19978;-71
2023/10/07 03:41:01;;;;;;;27.90;20.80;;;21.30;99.90;;;;;;7398545;19;19921;-72
2023/10/07 03:43:27;;;;;;;27.77;20.98;;;21.40;99.90;;;;;;7397189;19;19922;-72
2023/10/07 03:45:56;;;;;;;30.88;21.60;;;21.40;99.90;;;;;;7398272;19;19914;-71
2023/10/07 03:48:23;;;;;;;30.30;21.60;;;21.40;99.90;;;;;;7398102;19;20292;-71
2023/10/07 03:51:06;;;;;;;31.30;22.48;;;21.40;99.90;;;;;;7398363;19;19915;-71
2023/10/07 03:53:33;;;;;;;30.77;21.42;;;21.40;99.90;;;;;;7398323;19;19978;-71
2023/10/07 03:56:06;;;;;;;32.95;22.85;;;21.30;99.90;;;;;;7397622;19;20907;-72
2023/10/07 03:58:33;;;;;;;27.67;20.58;;;21.30;99.90;;;;;;7399305;19;19914;-71
2023/10/07 04:01:24;;;;;;;31.55;22.02;;;21.30;99.90;;;;;;7404913;19;19919;-72
2023/10/07 04:03:52;;;;;;;30.65;22.95;;;21.30;99.90;;;;;;7404493;19;19942;-72
2023/10/07 04:06:30;;;;;;;29.88;20.90;;;21.30;99.90;;;;;;7402564;19;20286;-73
2023/10/07 04:09:05;;;;;;;28.17;20.77;;;21.30;99.90;;;;;;7407167;19;20709;-71
2023/10/07 04:11:36;;;;;;;30.45;20.55;;;21.30;99.90;;;;;;7405704;19;19915;-72
2023/10/07 04:14:19;;;;;;;30.40;20.98;;;21.30;99.90;;;;;;7401977;19;19994;-72
2023/10/07 04:16:52;;;;;;;28.10;19.73;;;21.30;99.90;;;;;;7404659;19;19922;-71
2023/10/07 04:21:45;;;;;;;27.90;20.58;;;21.30;99.90;;;;;;7400977;19;19911;-71
2023/10/07 04:24:12;;;;;;;28.70;20.65;;;21.20;99.90;;;;;;7398082;19;20379;-72
2023/10/07 04:26:39;;;;;;;;;;;21.20;99.90;;;;;;7406806;19;20454;-72
2023/10/07 04:29:16;;;;;;;27.65;19.08;;;21.20;99.90;;;;;;7401924;19;19910;-71
2023/10/07 04:31:47;;;;;;;26.08;20.60;;;21.20;99.90;;;;;;7405761;19;19922;-72
2023/10/07 04:34:18;;;;;;;27.67;20.75;;;21.20;99.90;;;;;;7400214;19;19923;-71
2023/10/07 04:39:28;;;;;;;;;;;21.20;99.90;;;;;;7405095;19;19910;-70
2023/10/07 04:42:22;;;;;;;27.60;18.25;;;21.20;99.90;;;;;;7404036;19;19946;-72
2023/10/07 04:47:29;;;;;;;27.40;19.25;;;21.20;99.90;;;;;;7402320;19;19918;-71
2023/10/07 04:50:08;;;;;;;27.58;19.55;;;21.20;99.90;;;;;;7401169;19;20521;-71
2023/10/07 04:52:40;;;;;;;26.98;18.50;;;21.20;99.90;;;;;;7390241;19;20851;-72
2023/10/07 04:55:13;;;;;;;24.80;18.95;;;21.20;99.90;;;;;;7398268;19;20477;-74
2023/10/07 04:57:56;;;;;;;26.35;19.58;;;21.10;99.90;;;;;;7405986;19;20406;-73
2023/10/07 05:02:59;;;;;;;26.52;18.52;;;21.10;99.90;;;;;;7407431;19;20255;-72
2023/10/07 05:05:30;;;;;;;28.65;21.35;;;21.10;99.90;;;;;;7401764;19;19934;-74
2023/10/07 05:08:08;;;;;;;29.98;21.00;;;21.10;99.90;;;;;;7405653;19;19937;-73
2023/10/07 05:10:38;;;;;;;29.92;20.30;;;21.10;99.90;;;;;;7387743;19;20234;-73
2023/10/07 05:13:06;;;;;;;29.65;20.73;;;21.10;99.90;;;;;;7386370;19;19922;-74
2023/10/07 05:15:34;;;;;;;27.08;19.95;;;21.10;99.90;;;;;;7393794;19;20313;-73
2023/10/07 05:18:01;;;;;;;30.83;21.75;;;21.10;99.90;;;;;;7404120;19;20346;-73
2023/10/07 05:20:29;;;;;;;33.92;22.48;;;21.20;99.90;;;;;;7401761;19;19919;-73
2023/10/07 05:22:55;;;;;;;67.28;43.35;;;21.10;99.90;;;;;;7404305;19;19923;-73
2023/10/07 05:25:22;;;;;;;34.63;24.80;;;21.10;99.90;;;;;;7402739;19;19922;-74
2023/10/07 05:27:50;;;;;;;;;;;21.10;99.90;;;;;;7403936;19;19959;-74
2023/10/07 05:30:18;;;;;;;29.83;21.08;;;21.10;99.90;;;;;;7403732;19;19921;-75
2023/10/07 05:32:48;;;;;;;28.50;21.55;;;21.00;99.90;;;;;;7402667;19;19926;-73
2023/10/07 05:35:15;;;;;;;29.55;21.50;;;21.00;99.90;;;;;;7398307;19;20639;-73
2023/10/07 05:37:42;;;;;;;30.73;22.27;;;21.00;99.90;;;;;;7403248;19;19915;-73
2023/10/07 05:40:08;;;;;;;;;;;21.00;99.90;;;;;;7403669;19;19918;-73
2023/10/07 05:42:33;;;;;;;29.33;20.85;;;20.90;99.90;;;;;;7403351;19;19914;-73
2023/10/07 05:44:59;;;;;;;30.90;21.95;;;20.90;99.90;;;;;;7403293;19;19983;-74
2023/10/07 05:47:25;;;;;;;28.73;20.88;;;21.00;99.90;;;;;;7399162;19;20018;-74
2023/10/07 05:49:55;;;;;;;31.27;21.20;;;21.00;99.90;;;;;;7399785;19;19941;-73
2023/10/07 05:52:21;;;;;;;29.55;20.25;;;21.00;99.90;;;;;;7401175;19;19922;-73
2023/10/07 05:54:47;;;;;;;29.77;21.10;;;21.00;99.90;;;;;;7400960;19;20080;-74
2023/10/07 05:57:13;;;;;;;30.48;22.67;;;20.90;99.90;;;;;;7401392;19;19922;-73
2023/10/07 05:59:42;;;;;;;31.92;21.63;;;20.90;99.90;;;;;;7403222;19;20268;-73
2023/10/07 06:02:12;;;;;;;30.05;19.90;;;20.90;99.90;;;;;;7398533;19;20401;-73
2023/10/07 06:04:44;;;;;;;31.00;21.23;;;20.90;99.90;;;;;;7402757;19;19911;-74
2023/10/07 06:07:20;;;;;;;33.40;22.48;;;20.90;99.90;;;;;;7401483;19;19914;-73
2023/10/07 06:09:47;;;;;;;32.58;22.50;;;20.90;99.90;;;;;;7399730;19;19930;-74
2023/10/07 06:12:15;;;;;;;32.75;22.25;;;20.90;99.90;;;;;;7401385;19;19939;-73
2023/10/07 06:14:42;;;;;;;36.08;22.63;;;20.90;99.90;;;;;;7400425;19;20645;-73
2023/10/07 06:17:10;;;;;;;33.10;23.75;;;20.90;99.90;;;;;;7400642;19;20344;-73
2023/10/07 06:19:40;;;;;;;29.85;22.60;;;21.00;99.90;;;;;;7401352;19;19926;-73
2023/10/07 06:22:12;;;;;;;32.17;23.38;;;21.00;99.90;;;;;;7396716;19;19910;-74
2023/10/07 06:24:41;;;;;;;29.77;21.80;;;21.00;99.90;;;;;;7402202;19;19923;-75
2023/10/07 06:27:11;;;;;;;32.35;21.92;;;21.00;99.90;;;;;;7404456;19;19918;-74
2023/10/07 06:29:43;;;;;;;30.42;22.00;;;21.00;99.90;;;;;;7403808;19;19918;-73
2023/10/07 06:32:22;;;;;;;31.08;22.55;;;21.00;99.90;;;;;;7399074;19;19921;-73
2023/10/07 06:34:55;;;;;;;;;;;21.10;99.90;;;;;;7402563;19;20038;-73
2023/10/07 06:37:29;;;;;;;33.42;23.25;;;21.10;99.90;;;;;;7398862;19;19930;-74
2023/10/07 06:39:58;;;;;;;33.55;22.85;;;21.20;99.90;;;;;;7401783;19;20362;-74
2023/10/07 06:42:24;;;;;;;33.28;24.33;;;21.20;99.90;;;;;;7398957;19;19933;-74
2023/10/07 06:45:08;;;;;;;34.38;23.17;;;21.30;99.90;;;;;;7402682;19;19927;-73
2023/10/07 06:47:40;;;;;;;35.70;25.05;;;21.30;99.90;;;;;;7399957;19;20000;-74
2023/10/07 06:50:07;;;;;;;39.90;24.67;;;21.30;99.90;;;;;;7400655;19;19926;-73
2023/10/07 06:52:32;;;;;;;36.20;25.88;;;21.40;99.80;;;;;;7398472;19;19943;-73
2023/10/07 06:55:01;;;;;;;36.30;26.02;;;21.40;99.70;;;;;;7401518;19;20620;-74
2023/10/07 06:57:29;;;;;;;36.63;24.77;;;21.50;99.50;;;;;;7400297;19;19927;-74
2023/10/07 06:59:56;;;;;;;40.28;25.90;;;21.50;99.40;;;;;;7398284;19;19926;-74
2023/10/07 07:02:34;;;;;;;35.40;23.73;;;21.60;99.20;;;;;;7398116;19;19922;-74
2023/10/07 07:05:01;;;;;;;34.92;24.50;;;21.70;98.90;;;;;;7398314;19;20290;-73
2023/10/07 07:07:27;;;;;;;34.22;23.95;;;21.80;98.80;;;;;;7400537;19;19942;-73
2023/10/07 07:09:58;;;;;;;35.65;24.80;;;21.90;98.70;;;;;;7400663;19;20328;-73
2023/10/07 07:12:26;;;;;;;32.22;23.90;;;22.00;98.50;;;;;;7401216;19;20319;-73
2023/10/07 07:14:59;;;;;;;38.50;25.05;;;22.10;98.30;;;;;;7403963;19;20594;-74
2023/10/07 07:17:37;;;;;;;37.80;25.33;;;22.20;97.90;;;;;;7399411;19;19922;-74
2023/10/07 07:22:37;;;;;;;;;;;22.40;97.80;;;;;;7402071;19;19921;-73
2023/10/07 07:25:06;;;;;;;32.00;23.67;;;22.50;97.70;;;;;;7399169;19;19906;-73
2023/10/07 07:27:35;;;;;;;35.05;23.80;;;22.60;97.40;;;;;;7398223;19;19922;-74
2023/10/07 07:30:07;;;;;;;36.83;24.35;;;22.70;97.60;;;;;;7401359;19;19939;-74
2023/10/07 07:32:35;;;;;;;36.65;24.90;;;22.80;97.40;;;;;;7400325;19;19919;-74
2023/10/07 07:35:04;;;;;;;34.35;25.15;;;22.90;97.20;;;;;;7407497;19;19926;-74
2023/10/07 07:37:34;;;;;;;32.58;24.05;;;23.00;96.90;;;;;;7404739;19;19947;-73
2023/10/07 07:40:35;;;;;;;38.08;25.17;;;23.10;96.70;;;;;;7406527;19;20791;-74
2023/10/07 07:42:55;;;;;;;36.05;26.98;;;23.20;96.40;;;;;;7406177;19;19922;-74
2023/10/07 07:45:30;;;;;;;33.67;24.50;;;23.30;95.90;;;;;;7406208;19;19935;-75
2023/10/07 07:47:58;;;;;;;33.90;25.73;;;23.40;95.60;;;;;;7404438;19;19950;-75
2023/10/07 07:50:24;;;;;;;34.10;24.75;;;23.40;95.40;;;;;;7402259;19;19918;-74
2023/10/07 07:52:50;;;;;;;35.45;25.23;;;23.50;94.60;;;;;;7404532;19;19949;-75
2023/10/07 07:55:16;;;;;;;35.78;24.55;;;23.60;94.60;;;;;;7401586;19;19926;-74
2023/10/07 07:57:45;;;;;;;32.60;22.92;;;23.70;94.20;;;;;;7406043;19;20004;-74
2023/10/07 08:00:20;;;;;;;42.67;31.35;;;23.70;94.20;;;;;;7403673;19;20243;-74
2023/10/07 08:02:49;;;;;;;34.72;24.52;;;23.90;93.80;;;;;;7403429;19;19956;-73
2023/10/07 08:05:16;;;;;;;34.28;23.95;;;24.00;93.10;;;;;;7401893;19;20365;-74
2023/10/07 08:07:51;;;;;;;32.03;23.80;;;24.20;92.80;;;;;;7404957;19;20458;-74
2023/10/07 08:10:20;;;;;;;33.65;25.23;;;24.30;91.80;;;;;;7404655;19;19943;-74
2023/10/07 08:12:50;;;;;;;34.95;22.45;;;24.40;91.10;;;;;;7386987;19;19919;-73
2023/10/07 08:15:23;;;;;;;28.02;22.23;;;24.50;90.60;;;;;;7403774;19;20331;-73
2023/10/07 08:17:51;;;;;;;32.85;23.65;;;25.10;89.30;;;;;;7405735;19;19974;-73
2023/10/07 08:20:26;;;;;;;27.90;19.67;;;25.20;84.60;;;;;;7402311;19;19911;-74
2023/10/07 08:22:53;;;;;;;27.42;19.27;;;25.00;82.60;;;;;;7405306;19;20328;-74
2023/10/07 08:28:23;;;;;;;28.13;19.80;;;24.70;82.40;;;;;;7403360;19;19933;-73
2023/10/07 08:30:50;;;;;;;26.75;19.77;;;24.80;82.20;;;;;;7405510;19;19923;-74
2023/10/07 08:33:22;;;;;;;31.00;20.42;;;24.70;83.30;;;;;;7402958;19;19944;-74
2023/10/07 08:35:49;;;;;;;30.30;22.05;;;24.60;83.40;;;;;;7405251;19;19925;-73
2023/10/07 08:38:29;;;;;;;29.35;20.65;;;24.40;84.80;;;;;;7403755;19;19961;-73
2023/10/07 08:41:07;;;;;;;29.05;20.15;;;24.30;85.70;;;;;;7403024;19;19926;-72
2023/10/07 08:43:37;;;;;;;24.85;17.88;;;24.20;85.70;;;;;;7403144;19;20333;-73
2023/10/07 08:46:08;;;;;;;26.17;19.55;;;24.20;85.50;;;;;;7379459;19;20472;-73
2023/10/07 08:48:38;;;;;;;29.75;20.92;;;24.20;85.80;;;;;;7403526;19;19934;-73
2023/10/07 08:51:14;;;;;;;30.05;22.58;;;24.20;86.20;;;;;;7401766;19;19918;-73
2023/10/07 08:53:42;;;;;;;25.42;20.00;;;24.30;86.40;;;;;;7402277;19;20369;-73
2023/10/07 08:56:13;;;;;;;27.83;20.58;;;24.50;86.10;;;;;;7402757;19;19929;-73
2023/10/07 08:58:41;;;;;;;28.58;21.23;;;24.30;85.30;;;;;;7402477;19;19911;-74
2023/10/07 09:01:16;;;;;;;26.92;20.63;;;24.20;85.90;;;;;;7401190;19;20157;-73
2023/10/07 09:03:47;;;;;;;27.20;20.92;;;24.50;85.50;;;;;;7402188;19;19915;-74
2023/10/07 09:06:13;;;;;;;31.20;21.33;;;24.40;86.40;;;;;;7402666;19;19918;-73
2023/10/07 09:08:39;;;;;;;27.83;20.50;;;24.50;84.60;;;;;;7403470;19;19918;-73
2023/10/07 09:11:10;;;;;;;27.77;19.85;;;24.50;83.80;;;;;;7401310;19;20243;-73
2023/10/07 09:13:38;;;;;;;30.10;23.02;;;24.80;83.40;;;;;;7402440;19;20421;-74
2023/10/07 09:16:07;;;;;;;30.25;21.05;;;25.10;82.90;;;;;;7403102;19;19954;-74
2023/10/07 09:18:39;;;;;;;28.73;21.95;;;25.00;80.80;;;;;;7403004;19;19926;-73
2023/10/07 09:21:19;;;;;;;33.30;25.52;;;25.30;80.40;;;;;;7402666;19;19958;-73
2023/10/07 09:24:00;;;;;;;30.75;22.77;;;25.70;78.00;;;;;;7403723;19;20253;-73
2023/10/07 09:26:41;;;;;;;32.45;24.35;;;25.90;75.20;;;;;;7399982;19;19922;-74
2023/10/07 09:29:21;;;;;;;36.38;24.27;;;25.50;76.60;;;;;;7400243;19;19922;-74
2023/10/07 09:32:04;;;;;;;32.00;23.45;;;25.20;79.10;;;;;;7403756;19;20350;-73
2023/10/07 09:34:47;;;;;;;32.55;25.25;;;25.10;78.70;;;;;;7402672;19;19911;-74
2023/10/07 09:37:18;;;;;;;36.40;23.88;;;25.00;80.60;;;;;;7379949;19;20350;-73
2023/10/07 09:39:44;;;;;;;32.35;25.60;;;24.80;81.20;;;;;;7402351;19;19926;-74
2023/10/07 09:42:26;;;;;;;33.10;24.40;;;24.80;82.30;;;;;;7399663;19;19914;-75
2023/10/07 09:47:47;;;;;;;33.22;24.77;;;24.90;82.40;;;;;;7401550;19;19919;-74
2023/10/07 09:50:34;;;;;;;36.38;26.17;;;25.20;80.30;;;;;;7400967;19;19919;-73
2023/10/07 09:53:24;;;;;;;33.88;25.83;;;25.50;78.80;;;;;;7402285;19;19914;-74
2023/10/07 09:56:21;;;;;;;36.92;26.92;;;25.10;79.10;;;;;;7399711;19;19990;-74
2023/10/07 09:59:13;;;;;;;37.83;26.45;;;25.20;80.00;;;;;;7382028;19;19915;-73
2023/10/07 10:02:25;;;;;;;33.40;25.15;;;25.30;80.20;;;;;;7378318;19;19924;-73
2023/10/07 10:05:26;;;;;;;36.22;25.60;;;25.40;78.80;;;;;;7401645;19;20486;-74
2023/10/07 10:08:29;;;;;;;34.50;26.27;;;25.20;78.60;;;;;;7399804;19;19921;-75
2023/10/07 10:10:58;;;;;;;34.50;26.42;;;25.30;78.50;;;;;;7396961;19;19915;-74
2023/10/07 10:13:51;;;;;;;36.80;25.00;;;25.70;78.50;;;;;;7397138;19;19919;-74
2023/10/07 10:16:28;;;;;;;38.88;28.02;;;25.80;76.90;;;;;;7401246;19;20376;-73
2023/10/07 10:21:43;;;;;;;34.38;23.20;;;26.30;74.80;;;;;;7399417;19;19921;-73
2023/10/07 10:24:15;;;;;;;31.75;23.52;;;27.10;70.10;;;;;;7400274;19;19929;-73
2023/10/07 10:26:44;;;;;;;31.00;23.00;;;27.60;65.00;;;;;;7403743;19;19914;-73
2023/10/07 10:29:16;;;;;;;27.17;21.02;;;27.60;64.90;;;;;;7402082;19;19982;-74
2023/10/07 10:31:58;;;;;;;28.65;21.42;;;27.90;64.00;;;;;;7401527;19;19929;-73
2023/10/07 10:34:26;;;;;;;27.70;20.45;;;28.40;61.20;;;;;;7396716;19;19922;-73
2023/10/07 10:36:55;;;;;;;25.65;20.35;;;28.40;60.30;;;;;;7402826;19;19918;-74
2023/10/07 10:39:25;;;;;;;21.50;17.42;;;28.40;59.20;;;;;;7402089;19;19949;-76
2023/10/07 10:41:54;;;;;;;25.25;19.67;;;29.20;58.10;;;;;;7402701;19;20354;-74
2023/10/07 10:44:21;;;;;;;26.58;20.60;;;28.60;57.30;;;;;;7401343;19;19911;-74
2023/10/07 10:46:51;;;;;;;20.45;16.35;;;28.40;59.10;;;;;;7403682;19;20389;-74
2023/10/07 10:49:23;;;;;;;23.13;17.77;;;29.30;57.50;;;;;;7399903;19;19919;-74
2023/10/07 10:51:54;;;;;;;22.75;17.58;;;28.30;56.70;;;;;;7403457;19;19910;-74
2023/10/07 10:54:22;;;;;;;21.10;17.42;;;27.60;59.10;;;;;;7402726;19;19948;-73
2023/10/07 10:56:55;;;;;;;24.58;19.38;;;27.30;61.40;;;;;;7399939;19;19926;-74
2023/10/07 10:59:35;;;;;;;19.40;15.68;;;27.80;60.70;;;;;;7402787;19;19917;-73
2023/10/07 11:02:01;;;;;;;22.83;18.08;;;28.50;58.30;;;;;;7399462;19;19915;-74
2023/10/07 11:04:29;;;;;;;20.95;16.80;;;28.90;57.00;;;;;;7399319;19;19939;-73
2023/10/07 11:06:56;;;;;;;20.58;16.23;;;29.50;56.40;;;;;;7404527;19;19923;-74
2023/10/07 11:09:35;;;;;;;19.92;15.02;;;30.10;53.90;;;;;;7397184;19;20457;-74
2023/10/07 11:12:12;;;;;;;18.40;16.38;;;30.40;53.30;;;;;;7401214;19;19911;-74
2023/10/07 11:14:41;;;;;;;21.55;17.00;;;30.70;52.90;;;;;;7399050;19;19922;-74
2023/10/07 11:17:12;;;;;;;20.00;16.88;;;30.90;52.60;;;;;;7400247;19;19923;-74
2023/10/07 11:19:42;;;;;;;15.88;13.77;;;30.60;53.30;;;;;;7399149;19;19943;-75
2023/10/07 11:22:12;;;;;;;18.92;16.45;;;31.10;53.20;;;;;;7399952;19;19957;-75
2023/10/07 11:24:39;;;;;;;18.02;14.07;;;30.30;54.30;;;;;;7402831;19;19918;-75
2023/10/07 11:27:08;;;;;;;18.15;15.13;;;30.90;53.60;;;;;;7401379;19;20334;-75
2023/10/07 11:29:35;;;;;;;17.52;14.75;;;30.80;54.80;;;;;;7401293;19;19923;-73
2023/10/07 11:32:09;;;;;;;20.23;16.23;;;31.30;53.30;;;;;;7401388;19;20562;-74
2023/10/07 11:34:38;;;;;;;21.27;16.02;;;31.20;52.30;;;;;;7399919;19;19914;-73
2023/10/07 11:37:13;;;;;;;18.38;15.05;;;31.80;50.80;;;;;;7400563;19;20331;-73
2023/10/07 11:39:45;;;;;;;18.58;16.02;;;31.10;52.60;;;;;;7400014;19;19923;-75
2023/10/07 11:42:14;;;;;;;17.20;14.32;;;30.40;55.30;;;;;;7399784;19;19949;-73
2023/10/07 11:44:48;;;;;;;17.45;14.68;;;30.30;56.10;;;;;;7403075;19;19925;-74
2023/10/07 11:47:17;;;;;;;17.52;14.75;;;31.00;54.70;;;;;;7399748;19;20212;-74
2023/10/07 11:49:46;;;;;;;17.13;13.95;;;31.10;54.70;;;;;;7399097;19;19916;-74
2023/10/07 11:52:13;;;;;;;19.35;13.35;;;31.40;54.60;;;;;;7378263;19;20734;-73
2023/10/07 11:54:39;;;;;;;16.55;13.68;;;32.10;52.30;;;;;;7404219;19;19939;-75
2023/10/07 11:57:06;;;;;;;17.02;13.43;;;31.70;51.90;;;;;;7400147;19;19918;-73
2023/10/07 11:59:36;;;;;;;20.15;15.40;;;32.10;51.50;;;;;;7402362;19;19914;-74
2023/10/07 12:02:09;;;;;;;16.40;12.85;;;31.60;52.20;;;;;;7401524;19;19914;-74
2023/10/07 12:04:46;;;;;;;22.90;15.45;;;31.80;53.20;;;;;;7399354;19;19918;-73
2023/10/07 12:07:14;;;;;;;17.83;14.23;;;31.80;50.40;;;;;;7402037;19;19919;-75
2023/10/07 12:09:41;;;;;;;20.08;15.73;;;31.10;53.10;;;;;;7400819;19;19922;-76
2023/10/07 12:12:11;;;;;;;17.48;13.55;;;30.30;55.30;;;;;;7395011;19;19930;-74
2023/10/07 12:14:37;;;;;;;18.80;16.13;;;30.00;57.80;;;;;;7400035;19;19922;-73
2023/10/07 12:17:04;;;;;;;19.35;13.95;;;29.00;61.10;;;;;;7398920;19;19936;-75
2023/10/07 12:19:35;;;;;;;18.23;14.73;;;29.10;62.70;;;;;;7400639;19;19993;-73
2023/10/07 12:22:04;;;;;;;18.58;13.13;;;29.30;61.50;;;;;;7407884;19;19915;-75
2023/10/07 12:24:31;;;;;;;22.33;15.32;;;29.20;61.90;;;;;;7406302;19;19943;-73
2023/10/07 12:26:57;;;;;;;20.83;15.38;;;28.80;63.40;;;;;;7407538;19;19987;-74
2023/10/07 12:29:25;;;;;;;18.92;14.68;;;28.20;64.40;;;;;;7405395;19;19948;-74
2023/10/07 12:31:51;;;;;;;16.48;12.60;;;28.20;66.80;;;;;;7405061;19;19931;-74
2023/10/07 12:34:18;;;;;;;19.60;13.10;;;28.50;65.70;;;;;;7407097;19;20388;-74
2023/10/07 12:36:47;;;;;;;17.20;13.07;;;28.50;65.70;;;;;;7405594;19;20331;-74
2023/10/07 12:39:15;;;;;;;17.70;12.85;;;29.10;64.20;;;;;;7404690;19;19911;-75
2023/10/07 12:41:41;;;;;;;16.73;12.35;;;29.70;61.60;;;;;;7405036;19;19918;-74
2023/10/07 12:44:11;;;;;;;16.38;12.00;;;29.20;62.60;;;;;;7405047;19;19922;-74
2023/10/07 12:46:41;;;;;;;16.60;12.70;;;29.20;62.30;;;;;;7405671;19;19933;-73
2023/10/07 12:49:10;;;;;;;17.30;11.73;;;29.10;62.90;;;;;;7402012;19;20247;-74
2023/10/07 12:51:40;;;;;;;17.48;12.45;;;29.10;63.20;;;;;;7401434;19;19938;-74
2023/10/07 12:54:10;;;;;;;;;;;30.20;61.20;;;;;;7406311;19;20328;-76
2023/10/07 12:56:42;;;;;;;16.98;12.48;;;30.10;58.70;;;;;;7403481;19;19946;-73
2023/10/07 12:59:18;;;;;;;14.82;11.65;;;29.90;59.80;;;;;;7402367;19;20235;-74
2023/10/07 13:01:47;;;;;;;17.00;11.55;;;30.70;58.20;;;;;;7404780;19;19915;-78
2023/10/07 13:04:13;;;;;;;16.52;13.63;;;29.80;59.20;;;;;;7405503;19;19933;-74
2023/10/07 13:06:42;;;;;;;15.05;11.20;;;29.10;60.10;;;;;;7383671;19;19915;-75
2023/10/07 13:09:16;;;;;;;16.02;11.98;;;28.70;62.80;;;;;;7399975;19;20026;-73
2023/10/07 13:11:43;;;;;;;17.23;11.60;;;28.50;65.30;;;;;;7404933;19;19918;-75
2023/10/07 13:14:09;;;;;;;15.57;11.68;;;30.10;61.90;;;;;;7400826;19;20639;-74
2023/10/07 13:16:37;;;;;;;17.08;12.15;;;29.50;60.30;;;;;;7404293;19;19944;-73
2023/10/07 13:19:03;;;;;;;18.25;11.88;;;28.80;62.70;;;;;;7400704;19;20248;-73
2023/10/07 13:21:29;;;;;;;15.63;11.30;;;28.80;64.00;;;;;;7401448;19;19938;-74
2023/10/07 13:23:57;;;;;;;17.90;11.52;;;29.60;61.10;;;;;;7401782;19;19911;-74
2023/10/07 13:26:23;;;;;;;16.80;10.98;;;29.10;61.50;;;;;;7379284;19;19962;-76
2023/10/07 13:28:49;;;;;;;12.98;9.85;;;28.60;63.90;;;;;;7401709;19;20243;-73
2023/10/07 13:31:16;;;;;;;;;;;28.90;64.20;;;;;;7380720;19;19923;-73